Time;durP1;ratioP1;P1;durP2;ratioP2;P2;SDS_P1;SDS_P2;PMS_P1;PMS_P2;Temp;Humidity;BMP_temperature;BMP_pressure;BME280_temperature;BME280_humidity;BME280_pressure;Samples;Min_cycle;Max_cycle;Signal;HPM_P1;HPM_P2
2023/04/21 00:00:27;;;;;;;18.70;12.98;;;;;;;5.43;100.00;99040.97;5052105;28;20281;-60
2023/04/21 00:02:54;;;;;;;18.95;13.38;;;;;;;5.37;100.00;99037.31;5061075;28;20043;-60
2023/04/21 00:05:21;;;;;;;16.98;12.68;;;;;;;5.37;100.00;99034.66;5052956;28;20048;-60
2023/04/21 00:07:48;;;;;;;19.27;12.73;;;;;;;5.32;100.00;99031.81;5052160;28;20471;-60
2023/04/21 00:10:15;;;;;;;19.48;13.75;;;;;;;5.42;100.00;99042.00;5052704;28;20048;-60
2023/04/21 00:12:42;;;;;;;19.05;14.10;;;;;;;5.46;100.00;99037.88;5052478;28;20048;-59
2023/04/21 00:15:11;;;;;;;20.10;13.90;;;;;;;5.37;100.00;99045.28;5051964;28;20128;-60
2023/04/21 00:17:39;;;;;;;21.42;13.48;;;;;;;5.33;100.00;99033.44;5060628;28;20043;-60
2023/04/21 00:20:09;;;;;;;19.20;13.65;;;;;;;5.29;100.00;99037.56;5056556;28;20430;-60
2023/04/21 00:22:36;;;;;;;19.55;13.30;;;;;;;5.32;100.00;99047.78;5051629;28;20049;-60
2023/04/21 00:25:03;;;;;;;21.75;13.95;;;;;;;5.26;100.00;99037.97;5050656;28;20545;-60
2023/04/21 00:27:30;;;;;;;18.25;13.32;;;;;;;5.30;100.00;99033.88;5058577;28;20063;-60
2023/04/21 00:29:57;;;;;;;19.15;14.07;;;;;;;5.31;100.00;99035.50;5051581;28;20052;-59
2023/04/21 00:32:25;;;;;;;17.67;13.90;;;;;;;5.21;100.00;99029.03;5049260;28;20127;-59
2023/04/21 00:34:56;;;;;;;20.42;14.02;;;;;;;5.14;100.00;99029.03;5062768;28;20036;-60
2023/04/21 00:37:23;;;;;;;20.40;13.52;;;;;;;5.05;100.00;99030.34;5060642;28;20064;-60
2023/04/21 00:39:50;;;;;;;20.77;13.80;;;;;;;5.08;100.00;99028.06;5049983;28;20499;-59
2023/04/21 00:42:17;;;;;;;19.45;13.55;;;;;;;5.21;100.00;99024.50;5055538;28;20037;-60
2023/04/21 00:44:44;;;;;;;19.75;14.18;;;;;;;5.26;100.00;99026.53;5051285;28;20502;-60
2023/04/21 00:47:11;;;;;;;18.95;13.63;;;;;;;5.24;100.00;99028.59;5059577;28;20140;-60
2023/04/21 00:49:38;;;;;;;18.80;14.10;;;;;;;5.21;100.00;99031.69;5055839;28;20402;-60
2023/04/21 00:52:07;;;;;;;22.17;14.45;;;;;;;5.28;100.00;99029.81;5049626;28;20061;-59
2023/04/21 00:54:35;;;;;;;21.73;14.07;;;;;;;5.22;100.00;99017.34;5061320;28;20051;-60
2023/04/21 00:57:02;;;;;;;23.27;14.18;;;;;;;5.27;100.00;99026.34;5049571;28;20463;-60
2023/04/21 00:59:29;;;;;;;19.88;14.15;;;;;;;5.28;100.00;99019.19;5057926;28;20440;-59
2023/04/21 01:01:57;;;;;;;20.05;14.02;;;;;;;5.23;100.00;99026.97;5051883;28;20086;-59
2023/04/21 01:04:24;;;;;;;19.80;14.63;;;;;;;5.23;100.00;99025.13;5054015;28;20120;-61
2023/04/21 01:06:51;;;;;;;19.00;14.30;;;;;;;5.26;100.00;99027.34;5054069;28;20033;-59
2023/04/21 01:09:19;;;;;;;20.60;14.32;;;;;;;5.14;100.00;99029.88;5063020;28;20233;-59
2023/04/21 01:12:01;;;;;;;20.83;14.73;;;;;;;5.11;100.00;99019.66;5061217;28;20430;-59
2023/04/21 01:14:28;;;;;;;21.73;15.32;;;;;;;5.08;100.00;99016.63;5053923;28;20090;-59
2023/04/21 01:16:55;;;;;;;18.58;14.48;;;;;;;4.76;100.00;99016.53;5058226;28;20041;-59
2023/04/21 01:19:23;;;;;;;22.83;15.00;;;;;;;4.84;100.00;99012.81;5059580;28;20044;-59
2023/04/21 01:21:56;;;;;;;21.77;15.00;;;;;;;4.85;100.00;99012.63;5055669;28;20139;-59
2023/04/21 01:24:23;;;;;;;24.98;16.17;;;;;;;4.71;100.00;99009.19;5059727;28;20616;-60
2023/04/21 01:26:50;;;;;;;22.15;16.50;;;;;;;4.76;100.00;99005.91;5061708;28;20438;-59
2023/04/21 01:29:17;;;;;;;23.20;15.95;;;;;;;4.84;100.00;99003.06;5062697;28;20056;-59
2023/04/21 01:31:46;;;;;;;25.23;17.23;;;;;;;4.76;100.00;99009.38;5052447;28;20498;-60
2023/04/21 01:34:13;;;;;;;23.80;16.15;;;;;;;4.75;100.00;99006.97;5054002;28;20040;-59
2023/04/21 01:36:40;;;;;;;24.80;16.80;;;;;;;4.73;100.00;99007.16;5061946;28;20090;-59
2023/04/21 01:39:08;;;;;;;23.77;16.45;;;;;;;4.84;100.00;99012.81;5059356;28;20494;-59
2023/04/21 01:41:35;;;;;;;22.30;15.68;;;;;;;4.78;100.00;99011.84;5060376;28;20123;-59
2023/04/21 01:44:02;;;;;;;22.20;15.95;;;;;;;4.82;100.00;99012.22;5052155;28;20478;-59
2023/04/21 01:46:31;;;;;;;23.33;15.30;;;;;;;4.80;100.00;99008.97;5060976;28;20385;-59
2023/04/21 01:48:58;;;;;;;25.35;16.73;;;;;;;4.83;100.00;99009.38;5061718;28;20505;-59
2023/04/21 01:51:26;;;;;;;23.77;16.42;;;;;;;4.80;100.00;99006.34;5049254;28;20537;-59
2023/04/21 01:53:54;;;;;;;25.52;17.52;;;;;;;4.67;100.00;99004.53;5065108;28;20045;-59
2023/04/21 01:56:22;;;;;;;24.58;17.23;;;;;;;4.66;100.00;99000.25;5057109;28;20347;-59
2023/04/21 01:58:49;;;;;;;28.92;17.75;;;;;;;4.73;100.00;99007.16;5047100;28;20049;-59
2023/04/21 02:01:16;;;;;;;26.25;18.45;;;;;;;4.73;100.00;99006.34;5059477;28;20144;-59
2023/04/21 02:03:44;;;;;;;29.40;19.40;;;;;;;4.61;100.00;99008.00;5055905;28;20121;-59
2023/04/21 02:06:12;;;;;;;26.25;18.63;;;;;;;4.59;100.00;99010.88;5058770;28;20041;-59
2023/04/21 02:08:40;;;;;;;30.85;19.73;;;;;;;4.68;100.00;99006.97;5073769;28;20506;-60
2023/04/21 02:11:07;;;;;;;30.02;19.42;;;;;;;4.60;100.00;99009.06;5062802;28;20041;-59
2023/04/21 02:13:36;;;;;;;30.80;19.40;;;;;;;4.53;100.00;99009.88;5056843;28;20041;-59
2023/04/21 02:16:03;;;;;;;31.98;20.20;;;;;;;4.56;100.00;98995.38;5061872;28;20082;-59
2023/04/21 02:18:30;;;;;;;26.85;18.98;;;;;;;4.71;100.00;99005.72;5054624;28;20045;-59
2023/04/21 02:20:57;;;;;;;28.67;19.58;;;;;;;4.75;100.00;99004.28;5054273;28;20059;-59
2023/04/21 02:23:24;;;;;;;25.40;18.13;;;;;;;4.75;100.00;98999.00;5055813;28;20051;-59
2023/04/21 02:25:51;;;;;;;28.52;18.60;;;;;;;4.83;100.00;99011.22;5064026;28;20477;-59
2023/04/21 02:28:18;;;;;;;28.98;19.05;;;;;;;4.67;100.00;99012.50;5059014;28;20052;-59
2023/04/21 02:30:49;;;;;;;32.20;20.23;;;;;;;4.56;100.00;99007.81;5052214;28;20045;-59
2023/04/21 02:33:18;;;;;;;36.33;21.77;;;;;;;4.30;100.00;99001.56;5057968;28;20506;-59
2023/04/21 02:35:45;;;;;;;38.75;23.73;;;;;;;4.20;100.00;99003.84;5056985;28;20068;-59
2023/04/21 02:38:15;;;;;;;43.83;25.08;;;;;;;4.27;100.00;99007.28;5061332;28;20523;-59
2023/04/21 02:40:42;;;;;;;40.28;23.77;;;;;;;4.24;100.00;99008.53;5060293;28;20079;-59
2023/04/21 02:43:11;;;;;;;47.05;25.58;;;;;;;4.16;100.00;99010.56;5057666;28;20095;-59
2023/04/21 02:45:38;;;;;;;41.05;24.58;;;;;;;3.96;100.00;99006.09;5059570;28;20502;-59
2023/04/21 02:48:07;;;;;;;42.00;24.05;;;;;;;4.04;100.00;99005.91;5058265;28;20047;-59
2023/04/21 02:50:34;;;;;;;40.08;23.90;;;;;;;4.07;100.00;99004.66;5058519;28;20044;-59
2023/04/21 02:53:01;;;;;;;35.72;22.30;;;;;;;3.96;100.00;99006.09;5058907;28;20344;-59
2023/04/21 02:55:28;;;;;;;38.50;23.45;;;;;;;3.94;100.00;99016.06;5063473;28;20105;-59
2023/04/21 02:57:55;;;;;;;38.58;24.02;;;;;;;3.99;100.00;99021.56;5056895;28;20044;-60
2023/04/21 03:00:24;;;;;;;34.60;20.65;;;;;;;3.84;100.00;99013.84;5063801;28;20060;-60
2023/04/21 03:02:52;;;;;;;38.70;22.50;;;;;;;3.60;100.00;99023.22;5059037;28;20036;-60
2023/04/21 03:05:20;;;;;;;38.42;23.05;;;;;;;3.80;100.00;99022.41;5055676;28;20098;-60
2023/04/21 03:07:48;;;;;;;44.58;26.67;;;;;;;3.75;100.00;99025.69;5053238;28;20067;-60
2023/04/21 03:10:15;;;;;;;42.95;23.55;;;;;;;3.63;100.00;99019.34;5056007;28;20056;-59
2023/04/21 03:12:41;;;;;;;54.47;28.88;;;;;;;3.71;100.00;99024.44;5058522;28;20055;-59
2023/04/21 03:15:10;;;;;;;53.75;28.48;;;;;;;3.77;100.00;99017.50;5058045;28;20052;-59
2023/04/21 03:17:37;;;;;;;51.10;29.23;;;;;;;3.61;100.00;99024.84;5056182;28;20090;-60
2023/04/21 03:20:06;;;;;;;56.17;30.52;;;;;;;3.65;100.00;99025.25;5060677;28;20037;-60
2023/04/21 03:22:35;;;;;;;57.83;30.67;;;;;;;3.58;100.00;99025.25;5056120;28;20118;-60
2023/04/21 03:25:02;;;;;;;57.53;30.10;;;;;;;3.46;100.00;99013.59;5057173;28;20076;-60
2023/04/21 03:27:30;;;;;;;57.05;30.73;;;;;;;3.44;100.00;99023.59;5061849;28;20475;-59
2023/04/21 03:29:57;;;;;;;55.70;29.02;;;;;;;3.39;100.00;99018.06;5050613;28;20749;-59
2023/04/21 03:32:24;;;;;;;54.30;27.85;;;;;;;3.39;100.00;99023.38;5056184;28;20056;-59
2023/04/21 03:34:54;;;;;;;60.00;31.00;;;;;;;3.30;100.00;99027.25;5053232;28;20334;-60
2023/04/21 03:37:21;;;;;;;59.50;30.00;;;;;;;3.28;100.00;99023.97;5059454;28;20044;-59
2023/04/21 03:39:50;;;;;;;63.63;31.98;;;;;;;3.45;100.00;99025.22;5058708;28;20051;-59
2023/04/21 03:42:19;;;;;;;75.00;34.22;;;;;;;3.58;100.00;99024.44;5059047;28;20086;-59
2023/04/21 03:44:46;;;;;;;71.28;33.15;;;;;;;3.75;100.00;99022.22;5048365;28;20049;-60
2023/04/21 03:47:13;;;;;;;73.65;33.65;;;;;;;3.77;100.00;99014.84;5058443;28;20430;-60
2023/04/21 03:49:39;;;;;;;63.85;32.20;;;;;;;3.71;100.00;99020.97;5057875;28;20052;-59
2023/04/21 03:52:06;;;;;;;73.70;34.05;;;;;;;3.70;100.00;99022.81;5051962;28;20558;-60
2023/04/21 03:54:34;;;;;;;66.10;32.63;;;;;;;3.75;100.00;99019.56;5064256;28;20063;-59
2023/04/21 03:57:02;;;;;;;63.92;31.17;;;;;;;3.79;100.00;99026.06;5051907;28;20487;-59
2023/04/21 03:59:29;;;;;;;67.90;32.30;;;;;;;3.87;100.00;99025.88;5055414;28;20055;-59
2023/04/21 04:01:56;;;;;;;65.95;31.05;;;;;;;3.93;100.00;99033.00;5059037;28;20069;-59
2023/04/21 04:04:23;;;;;;;70.88;35.58;;;;;;;4.01;100.00;99032.81;5052193;28;20056;-59
2023/04/21 04:06:50;;;;;;;67.43;33.92;;;;;;;4.12;100.00;99031.38;5049957;28;20045;-59
2023/04/21 04:09:18;;;;;;;67.10;31.38;;;;;;;4.14;100.00;99018.72;5060972;28;20123;-59
2023/04/21 04:11:45;;;;;;;56.15;28.95;;;;;;;4.05;100.00;99019.97;5054982;28;20041;-60
2023/04/21 04:14:14;;;;;;;60.05;30.70;;;;;;;4.21;100.00;99024.03;5058520;28;20126;-59
2023/04/21 04:16:41;;;;;;;56.72;28.92;;;;;;;4.30;100.00;99022.78;5051354;28;20029;-60
2023/04/21 04:19:09;;;;;;;52.30;26.67;;;;;;;4.48;100.00;99020.28;5050661;28;20044;-60
2023/04/21 04:21:36;;;;;;;59.55;30.33;;;;;;;4.67;100.00;99025.78;5060052;28;20105;-61
2023/04/21 04:24:04;;;;;;;54.25;27.90;;;;;;;4.48;100.00;99027.44;5056226;28;20495;-60
2023/04/21 04:26:33;;;;;;;49.50;25.83;;;;;;;4.33;100.00;99033.00;5055142;28;20052;-60
2023/04/21 04:29:01;;;;;;;43.65;25.17;;;;;;;4.33;100.00;99020.53;5054336;28;20091;-60
2023/04/21 04:31:33;;;;;;;40.20;24.70;;;;;;;4.18;100.00;99017.28;5050325;28;20388;-61
2023/04/21 04:34:00;;;;;;;43.55;24.80;;;;;;;4.19;100.00;99015.44;5051918;28;20068;-60
2023/04/21 04:36:28;;;;;;;44.10;25.60;;;;;;;3.97;100.00;99023.66;5061833;28;20553;-60
2023/04/21 04:38:58;;;;;;;44.15;25.58;;;;;;;4.10;100.00;99013.03;5055198;28;20047;-60
2023/04/21 04:41:26;;;;;;;48.35;26.00;;;;;;;4.15;100.00;99023.00;5054317;28;20559;-60
2023/04/21 04:43:53;;;;;;;45.25;25.75;;;;;;;4.33;100.00;99022.38;5052563;28;20120;-60
2023/04/21 04:46:20;;;;;;;48.53;26.85;;;;;;;4.24;100.00;99015.66;5057868;28;20055;-59
2023/04/21 04:48:49;;;;;;;48.92;27.10;;;;;;;4.47;100.00;99017.88;5053911;28;20048;-59
2023/04/21 04:51:16;;;;;;;44.50;25.67;;;;;;;4.63;100.00;99016.59;5053303;28;20568;-59
2023/04/21 04:53:43;;;;;;;53.42;27.38;;;;;;;4.48;100.00;99022.13;5052316;28;20070;-59
2023/04/21 04:56:10;;;;;;;56.47;28.55;;;;;;;4.92;100.00;99018.72;5054753;28;20086;-60
2023/04/21 04:58:37;;;;;;;52.92;28.67;;;;;;;4.93;100.00;99014.22;5052020;28;20055;-59
2023/04/21 05:01:12;;;;;;;54.05;28.30;;;;;;;5.04;100.00;99020.72;5054766;28;20049;-60
2023/04/21 05:03:39;;;;;;;51.05;27.38;;;;;;;5.07;100.00;99033.59;5050275;28;20033;-59
2023/04/21 05:06:08;;;;;;;55.42;29.45;;;;;;;5.05;100.00;99031.13;5055036;28;20689;-59
2023/04/21 05:08:35;;;;;;;59.28;30.20;;;;;;;4.89;100.00;99026.28;5054922;28;20048;-59
2023/04/21 05:11:02;;;;;;;58.30;28.70;;;;;;;5.17;100.00;99023.31;5049248;28;20045;-59
2023/04/21 05:13:29;;;;;;;58.55;29.90;;;;;;;4.96;100.00;99027.09;5052112;28;20427;-61
2023/04/21 05:15:58;;;;;;;51.17;26.63;;;;;;;5.15;100.00;99036.00;5054774;28;20127;-61
2023/04/21 05:18:25;;;;;;;55.92;30.27;;;;;;;5.19;100.00;99040.69;5054515;28;20080;-60
2023/04/21 05:20:52;;;;;;;51.13;27.08;;;;;;;5.53;100.00;99027.19;5052859;28;20063;-60
2023/04/21 05:23:20;;;;;;;53.70;28.88;;;;;;;5.44;100.00;99018.66;5052833;28;20049;-59
2023/04/21 05:25:48;;;;;;;47.35;25.65;;;;;;;5.39;100.00;99029.94;5050249;28;20052;-59
2023/04/21 05:28:15;;;;;;;46.22;26.50;;;;;;;5.43;100.00;99030.31;5054217;28;20535;-59
2023/04/21 05:30:42;;;;;;;45.83;25.10;;;;;;;5.46;100.00;99037.06;5052935;28;20044;-59
2023/04/21 05:33:09;;;;;;;44.75;25.42;;;;;;;5.29;100.00;99045.56;5053348;28;20037;-59
2023/04/21 05:35:36;;;;;;;41.35;24.13;;;;;;;5.29;100.00;99036.75;5043473;28;20048;-59
2023/04/21 05:38:03;;;;;;;43.60;24.30;;;;;;;5.49;100.00;99037.47;5047006;28;20366;-60
2023/04/21 05:40:32;;;;;;;44.05;24.73;;;;;;;5.56;100.00;99035.56;5051051;28;20122;-59
2023/04/21 05:42:59;;;;;;;46.28;24.27;;;;;;;5.64;100.00;99034.47;5053578;28;20080;-59
2023/04/21 05:45:26;;;;;;;46.10;25.45;;;;;;;5.60;100.00;99044.75;5055924;28;20048;-58
2023/04/21 05:47:53;;;;;;;47.47;24.90;;;;;;;5.71;100.00;99048.53;5051729;28;20110;-61
2023/04/21 05:50:20;;;;;;;46.63;26.25;;;;;;;5.64;100.00;99045.09;5054293;28;20056;-60
2023/04/21 05:52:47;;;;;;;51.58;27.67;;;;;;;5.59;100.00;99048.44;5052959;28;20052;-60
2023/04/21 05:55:14;;;;;;;48.78;27.50;;;;;;;5.64;100.00;99045.09;5059022;28;20043;-60
2023/04/21 05:57:45;;;;;;;46.55;26.88;;;;;;;5.74;100.00;99049.97;5052917;28;20036;-59
2023/04/21 06:00:13;;;;;;;58.88;29.35;;;;;;;5.75;100.00;99041.78;5051242;28;20068;-60
2023/04/21 06:02:40;;;;;;;49.72;29.25;;;;;;;5.83;100.00;99038.03;5062692;28;20041;-60
2023/04/21 06:05:07;;;;;;;49.65;26.58;;;;;;;5.91;100.00;99044.94;5052817;28;20115;-61
2023/04/21 06:07:36;;;;;;;53.13;27.90;;;;;;;6.01;100.00;99037.31;5055250;28;20044;-61
2023/04/21 06:10:04;;;;;;;50.55;28.30;;;;;;;6.07;100.00;99043.63;5053248;28;20162;-61
2023/04/21 06:12:31;;;;;;;50.75;26.75;;;;;;;6.05;100.00;99051.81;5056946;28;20082;-60
2023/04/21 06:14:59;;;;;;;46.22;24.95;;;;;;;5.85;100.00;99035.97;5049544;28;20069;-60
2023/04/21 06:17:26;;;;;;;46.10;25.52;;;;;;;6.02;100.00;99041.63;5054524;28;20124;-60
2023/04/21 06:19:54;;;;;;;40.95;23.58;;;;;;;6.05;100.00;99031.34;5054657;28;20548;-60
2023/04/21 06:22:21;;;;;;;42.22;23.42;;;;;;;6.89;100.00;99030.94;5056186;28;20151;-59
2023/04/21 06:24:48;;;;;;;42.50;23.75;;;;;;;8.69;100.00;99029.00;5060301;28;20071;-59
2023/04/21 06:27:16;;;;;;;35.90;20.83;;;;;;;10.09;87.62;99025.94;5059117;28;20045;-59
2023/04/21 06:29:43;;;;;;;34.17;20.50;;;;;;;12.40;77.16;99032.84;5054629;28;20048;-61
2023/04/21 06:32:11;;;;;;;32.67;19.75;;;;;;;13.49;69.85;99033.06;5056720;28;20404;-60
2023/04/21 06:34:38;;;;;;;32.22;20.30;;;;;;;12.01;75.66;99035.78;5052121;28;20045;-59
2023/04/21 06:37:08;;;;;;;31.88;20.85;;;;;;;11.45;77.16;99043.28;5056648;28;20067;-60
2023/04/21 06:39:35;;;;;;;30.55;20.17;;;;;;;10.38;80.92;99048.09;5056812;28;20078;-60
2023/04/21 06:42:02;;;;;;;30.88;20.38;;;;;;;8.45;91.38;99059.44;5056448;28;20569;-59
2023/04/21 06:44:31;;;;;;;34.65;22.52;;;;;;;7.76;98.20;99051.88;5055067;28;20066;-60
2023/04/21 06:46:58;;;;;;;36.65;23.40;;;;;;;7.41;100.00;99049.91;5060494;28;20137;-60
2023/04/21 06:49:26;;;;;;;35.80;22.33;;;;;;;7.22;100.00;99045.69;5057826;28;20445;-60
2023/04/21 06:51:53;;;;;;;43.05;26.38;;;;;;;7.39;100.00;99046.69;5054835;28;20063;-60
2023/04/21 06:54:20;;;;;;;37.97;23.40;;;;;;;7.53;100.00;99042.78;5060888;28;20055;-60
2023/04/21 06:56:50;;;;;;;37.60;23.35;;;;;;;7.87;99.43;99040.44;5053824;28;20037;-60
2023/04/21 06:59:17;;;;;;;37.85;22.00;;;;;;;7.93;97.68;99039.50;5059769;28;20040;-60
2023/04/21 07:01:44;;;;;;;45.58;29.10;;;;;;;7.96;99.16;99041.75;5054700;28;20114;-60
2023/04/21 07:04:11;;;;;;;45.03;23.70;;;;;;;7.91;97.10;99038.13;5061348;28;20048;-60
2023/04/21 07:06:39;;;;;;;36.63;21.95;;;;;;;7.65;96.69;99044.69;5053178;28;20044;-60
2023/04/21 07:09:07;;;;;;;43.17;27.48;;;;;;;8.31;99.17;99042.81;5052881;28;20477;-61
2023/04/21 07:11:34;;;;;;;40.58;27.05;;;;;;;10.32;86.59;99039.19;5056258;28;20133;-62
2023/04/21 07:14:01;;;;;;;30.70;20.65;;;;;;;13.78;71.29;99043.38;5053230;28;20279;-59
2023/04/21 07:16:28;;;;;;;27.38;17.35;;;;;;;14.60;67.75;99037.94;5058434;28;20491;-59
2023/04/21 07:18:55;;;;;;;23.38;17.05;;;;;;;15.09;61.14;99038.03;5048598;28;20110;-59
2023/04/21 07:21:22;;;;;;;26.85;17.35;;;;;;;13.17;66.89;99042.09;5056001;28;20068;-59
2023/04/21 07:23:51;;;;;;;24.30;17.73;;;;;;;11.31;73.55;99050.13;5054136;28;20692;-59
2023/04/21 07:26:18;;;;;;;27.05;17.55;;;;;;;8.99;83.63;99054.75;5056703;28;20040;-59
2023/04/21 07:28:45;;;;;;;27.63;19.25;;;;;;;8.45;87.71;99052.25;5048496;28;20064;-59
2023/04/21 07:31:12;;;;;;;33.28;19.95;;;;;;;7.62;94.50;99055.81;5050604;28;20110;-59
2023/04/21 07:33:39;;;;;;;32.13;20.15;;;;;;;7.59;96.19;99048.25;5056965;28;20500;-59
2023/04/21 07:36:07;;;;;;;32.83;20.70;;;;;;;7.82;96.07;99043.00;5053611;28;20136;-59
2023/04/21 07:38:33;;;;;;;35.33;21.08;;;;;;;7.48;99.03;99041.84;5047703;28;20041;-59
2023/04/21 07:41:02;;;;;;;37.10;21.50;;;;;;;7.16;100.00;99046.56;5057733;28;20098;-59
2023/04/21 07:43:32;;;;;;;37.60;22.75;;;;;;;7.09;100.00;99046.69;5057335;28;20057;-59
2023/04/21 07:45:59;;;;;;;43.15;23.23;;;;;;;7.32;100.00;99056.63;5062494;28;20060;-59
2023/04/21 07:48:26;;;;;;;40.30;22.30;;;;;;;7.25;100.00;99059.38;5058804;28;20521;-59
2023/04/21 07:50:53;;;;;;;37.30;21.90;;;;;;;7.25;100.00;99051.38;5056056;28;20522;-59
2023/04/21 07:53:20;;;;;;;37.25;21.10;;;;;;;7.18;100.00;99045.31;5056780;28;20106;-60
2023/04/21 07:55:47;;;;;;;35.78;21.30;;;;;;;7.03;100.00;99055.53;5051580;28;20036;-60
2023/04/21 07:58:17;;;;;;;41.38;22.25;;;;;;;6.65;100.00;99057.41;5051039;28;20131;-61
2023/04/21 08:00:44;;;;;;;39.73;21.80;;;;;;;6.70;100.00;99064.72;5045887;28;20049;-60
2023/04/21 08:03:11;;;;;;;41.63;21.92;;;;;;;6.99;100.00;99062.34;5053494;28;20397;-60
2023/04/21 08:05:38;;;;;;;37.97;20.73;;;;;;;7.16;100.00;99057.22;5046932;28;20045;-61
2023/04/21 08:08:06;;;;;;;40.90;23.73;;;;;;;7.29;100.00;99055.22;5050633;28;20087;-59
2023/04/21 08:10:33;;;;;;;42.13;23.77;;;;;;;8.28;100.00;99052.09;5046789;28;20456;-59
2023/04/21 08:13:00;;;;;;;35.72;21.10;;;;;;;8.77;97.73;99062.56;5054771;28;20399;-59
2023/04/21 08:15:28;;;;;;;32.50;19.58;;;;;;;8.92;90.18;99054.88;5049112;28;20083;-59
2023/04/21 08:17:55;;;;;;;32.60;19.40;;;;;;;9.14;90.34;99054.25;5052532;28;20132;-62
2023/04/21 08:20:22;;;;;;;29.40;18.30;;;;;;;9.34;90.52;99051.97;5056480;28;20134;-59
2023/04/21 08:22:49;;;;;;;28.23;16.73;;;;;;;9.56;87.30;99051.25;5052600;28;20068;-59
2023/04/21 08:25:16;;;;;;;28.33;18.20;;;;;;;11.43;81.50;99048.94;5051359;28;20698;-59
2023/04/21 08:27:43;;;;;;;27.73;17.23;;;;;;;12.00;78.22;99054.84;5047655;28;20068;-59
2023/04/21 08:30:11;;;;;;;28.73;18.35;;;;;;;11.37;77.97;99046.44;5052052;28;20056;-59
2023/04/21 08:32:40;;;;;;;28.70;17.70;;;;;;;11.29;75.93;99050.38;5053245;28;20463;-59
2023/04/21 08:35:08;;;;;;;29.50;17.35;;;;;;;11.59;78.97;99041.03;5051666;28;20056;-59
2023/04/21 08:37:36;;;;;;;25.40;16.95;;;;;;;11.12;79.85;99038.91;5054295;28;20368;-59
2023/04/21 08:40:03;;;;;;;24.55;16.52;;;;;;;12.26;76.97;99032.50;5052509;28;20047;-59
2023/04/21 08:42:30;;;;;;;24.00;16.52;;;;;;;14.60;69.11;99036.06;5054572;28;20045;-59
2023/04/21 08:44:57;;;;;;;24.20;15.95;;;;;;;14.21;64.90;99044.72;5053887;28;20052;-59
2023/04/21 08:47:24;;;;;;;22.08;15.65;;;;;;;15.12;64.06;99039.38;5052722;28;20036;-59
2023/04/21 08:49:54;;;;;;;21.80;15.05;;;;;;;15.25;64.41;99044.19;5055773;28;20140;-59
2023/04/21 08:52:23;;;;;;;19.48;13.38;;;;;;;14.57;61.81;99043.88;5053742;28;20052;-60
2023/04/21 08:54:51;;;;;;;16.00;11.00;;;;;;;12.72;67.66;99038.13;5058010;28;20105;-59
2023/04/21 08:57:18;;;;;;;15.25;10.57;;;;;;;12.27;69.26;99039.47;5058277;28;20052;-59
2023/04/21 08:59:45;;;;;;;15.73;10.02;;;;;;;11.70;73.15;99040.03;5048238;28;20822;-59
2023/04/21 09:02:14;;;;;;;16.27;11.13;;;;;;;11.54;74.90;99039.09;5050010;28;20151;-59
2023/04/21 09:05:00;;;;;;;23.50;15.05;;;;;;;13.11;71.11;99031.59;5049611;28;20045;-59
2023/04/21 09:07:32;;;;;;;19.60;13.13;;;;;;;12.52;72.14;99024.59;5054062;28;20044;-59
2023/04/21 09:10:00;;;;;;;22.90;13.77;;;;;;;13.34;67.98;99024.97;5048201;28;20094;-58
2023/04/21 09:12:28;;;;;;;21.27;14.60;;;;;;;13.17;70.22;99020.56;5052006;28;20123;-59
2023/04/21 09:14:56;;;;;;;19.52;13.40;;;;;;;14.27;65.32;99013.16;5052796;28;20260;-59
2023/04/21 09:17:30;;;;;;;22.45;14.45;;;;;;;13.48;66.62;99026.09;5048558;28;20049;-59
2023/04/21 09:19:58;;;;;;;18.92;13.40;;;;;;;13.43;70.99;99015.31;5053254;28;20036;-60
2023/04/21 09:22:29;;;;;;;18.73;12.95;;;;;;;13.14;68.44;99015.72;5052430;28;20469;-59
2023/04/21 09:24:58;;;;;;;18.67;12.27;;;;;;;14.78;64.28;99005.00;5052445;28;20037;-60
2023/04/21 09:27:26;;;;;;;15.52;11.32;;;;;;;15.88;60.13;99011.13;5051704;28;20483;-59
2023/04/21 09:29:53;;;;;;;13.35;8.20;;;;;;;12.61;69.47;99022.22;5057717;28;20062;-59
2023/04/21 09:32:20;;;;;;;12.00;8.57;;;;;;;11.96;72.39;99010.78;5060946;28;20144;-59
2023/04/21 09:34:47;;;;;;;12.95;8.90;;;;;;;11.64;74.93;99014.22;5056461;28;20123;-61
2023/04/21 09:37:14;;;;;;;12.68;8.80;;;;;;;12.11;73.14;99013.56;5053679;28;20120;-61
2023/04/21 09:39:45;;;;;;;10.80;8.40;;;;;;;11.09;75.52;98997.31;5056173;28;20135;-60
2023/04/21 09:42:12;;;;;;;12.43;8.48;;;;;;;11.56;76.56;99002.09;5061581;28;20090;-59
2023/04/21 09:44:39;;;;;;;13.40;8.93;;;;;;;11.92;72.83;98998.91;5059342;28;20032;-60
2023/04/21 09:47:06;;;;;;;16.20;10.30;;;;;;;12.60;72.24;99007.94;5056747;28;20106;-60
2023/04/21 09:49:35;;;;;;;14.73;9.57;;;;;;;13.27;70.65;98992.91;5054625;28;20047;-59
2023/04/21 09:52:02;;;;;;;10.57;6.80;;;;;;;12.42;69.52;99008.41;5054821;28;20140;-60
2023/04/21 09:54:30;;;;;;;10.20;6.75;;;;;;;12.79;70.36;99002.94;5065248;28;20055;-59
2023/04/21 09:57:01;;;;;;;55.00;26.67;;;;;;;14.46;65.41;98992.63;5045676;28;20044;-59
2023/04/21 09:59:30;;;;;;;33.47;17.98;;;;;;;15.19;63.61;98985.91;5054629;28;20049;-59
2023/04/21 10:01:58;;;;;;;14.52;10.32;;;;;;;16.27;59.50;98985.09;5055150;28;20487;-60
2023/04/21 10:04:25;;;;;;;14.15;8.73;;;;;;;16.18;58.26;98982.22;5053747;28;20073;-60
2023/04/21 10:06:52;;;;;;;34.78;24.08;;;;;;;16.54;58.07;98979.94;5064470;28;20063;-60
2023/04/21 10:09:20;;;;;;;16.63;10.60;;;;;;;17.05;59.28;98978.56;5059766;28;20137;-59
2023/04/21 10:11:47;;;;;;;18.83;12.52;;;;;;;16.06;53.62;98968.28;5066714;28;20044;-59
2023/04/21 10:14:15;;;;;;;11.07;6.72;;;;;;;13.67;62.42;98966.31;5060228;28;20033;-60
2023/04/21 10:16:42;;;;;;;8.32;6.10;;;;;;;14.69;59.38;98959.97;5056032;28;20048;-60
2023/04/21 10:19:25;;;;;;;15.38;9.40;;;;;;;15.92;57.75;98958.13;5061159;28;20131;-59
2023/04/21 10:21:55;;;;;;;12.48;8.82;;;;;;;16.17;58.70;98946.28;5057364;28;20114;-59
2023/04/21 10:24:22;;;;;;;13.90;9.90;;;;;;;15.77;57.54;98954.75;5063006;28;20152;-60
2023/04/21 10:26:50;;;;;;;16.27;13.35;;;;;;;16.07;60.10;98949.06;5056929;28;20572;-60
2023/04/21 10:29:28;;;;;;;11.18;8.73;;;;;;;16.39;58.98;98951.16;5055435;28;20407;-60
2023/04/21 10:31:55;;;;;;;11.02;7.60;;;;;;;14.58;58.32;98941.13;5063234;28;20040;-60
2023/04/21 10:34:28;;;;;;;9.27;6.45;;;;;;;14.93;58.26;98938.56;5052826;28;20044;-60
2023/04/21 10:37:10;;;;;;;9.30;5.68;;;;;;;14.68;58.69;98932.19;5052522;28;20124;-60
2023/04/21 10:39:38;;;;;;;8.18;5.28;;;;;;;15.39;54.15;98922.88;5054941;28;20043;-60
2023/04/21 10:42:19;;;;;;;8.73;7.55;;;;;;;15.76;53.35;98920.72;5061143;28;20056;-60
2023/04/21 10:44:53;;;;;;;8.55;7.03;;;;;;;16.56;54.63;98915.53;5056637;28;20675;-60
2023/04/21 10:47:26;;;;;;;9.63;5.93;;;;;;;16.70;52.35;98912.13;5049783;28;20064;-59
2023/04/21 10:49:54;;;;;;;9.05;6.65;;;;;;;17.20;50.57;98909.88;5059093;28;20040;-60
2023/04/21 10:52:21;;;;;;;10.63;6.45;;;;;;;14.92;53.68;98908.06;5058023;28;20044;-61
2023/04/21 10:55:07;;;;;;;9.35;6.03;;;;;;;14.28;56.71;98909.66;5057504;28;20116;-60
2023/04/21 10:57:34;;;;;;;9.18;6.45;;;;;;;14.34;59.30;98902.34;5055981;28;20040;-60
2023/04/21 11:00:05;;;;;;;9.45;6.65;;;;;;;14.93;57.32;98898.88;5063315;28;20419;-60
2023/04/21 11:02:33;;;;;;;8.38;6.38;;;;;;;14.81;57.07;98891.13;5051493;28;20507;-60
2023/04/21 11:05:00;;;;;;;9.90;6.10;;;;;;;15.02;56.35;98891.00;5059699;28;20040;-59
2023/04/21 11:07:27;;;;;;;9.63;6.10;;;;;;;14.99;56.19;98886.97;5054863;28;20048;-59
2023/04/21 11:09:58;;;;;;;11.10;7.80;;;;;;;14.07;60.97;98889.22;5061122;28;20403;-59
2023/04/21 11:12:27;;;;;;;8.77;6.78;;;;;;;14.75;58.40;98886.03;5057770;28;20045;-59
2023/04/21 11:14:54;;;;;;;11.32;7.57;;;;;;;14.52;60.59;98882.06;5057835;28;20041;-59
2023/04/21 11:17:23;;;;;;;12.38;7.95;;;;;;;15.59;60.23;98873.28;5054528;28;20036;-61
2023/04/21 11:19:51;;;;;;;12.75;8.00;;;;;;;15.45;60.14;98880.41;5057586;28;20513;-59
2023/04/21 11:22:18;;;;;;;10.80;7.97;;;;;;;14.85;61.50;98869.78;5058096;28;20094;-58